»·PEaware :: AAL38 KMIA-EGLL

AAL38 :: KMIA-EGLL

FLIGHT INFORMATION

Flight Status: Arrived
Operator:
American Airlines
More flights by this operator :: More flights under this callsign
Pilot: Anonymous 13363 (13363)
Aircraft: Unknown
(B77W)
More flights by this aircraft type
Origin: KMIA Miami Intl
United States
Destination: EGLL Heathrow
United Kingdom
More flights between these airports :: More routes between these airports
Route: VALLY2 VALLY WOLFO SNAGY M203 PERDO SOORY NATY 45N040W/M084F330 NATY NERTU/M084F370 GAPLI/N0476F370 UN20 RIGDI N17 OTMET OTME1H
File this flight plan on PilotEdge
Remarks:
Altitude:
(Current/Filed)
33,000ft
Speed:
(Current/Filed)
495kts
Departed: 20-Mar-18 06:20 AM
Arrived: 20-Mar-18 04:11 PM
Distance/Time
Traveled:
3836nm/9:51
Distance/Time
To Go:
Arrived

Flight Plot

Page will automatically refresh every two minutes.

Flight plan parsing failed; only flown route is shown


Map Options




Map Legend


Flown Route
Filed Route
Departure Airport
Arrival Airport
Navaid (VOR, NDB)
Fix

Horizontal Profiles

Position Reports

Time Latitude Longitude Heading Altitude Ground
Speed
20-Mar-18 05:59 25.797879 -80.278330 177 21ft 0kts
20-Mar-18 06:00 25.797879 -80.278330 177 21ft 0kts
20-Mar-18 06:01 25.797879 -80.278330 177 21ft 0kts
20-Mar-18 06:02 25.797879 -80.278330 177 21ft 0kts
20-Mar-18 06:03 25.798392 -80.278356 177 21ft 2kts
20-Mar-18 06:04 25.799030 -80.278387 177 21ft 1kts
20-Mar-18 06:05 25.799051 -80.278388 177 21ft 0kts
20-Mar-18 06:06 25.799051 -80.278388 177 21ft 0kts
20-Mar-18 06:07 25.799051 -80.278388 177 21ft 0kts
20-Mar-18 06:08 25.798984 -80.278408 195 21ft 1kts
20-Mar-18 06:09 25.798730 -80.278794 263 21ft 2kts
20-Mar-18 06:10 25.799586 -80.281140 273 21ft 14kts
20-Mar-18 06:11 25.799471 -80.285757 265 21ft 14kts
20-Mar-18 06:12 25.798363 -80.289116 177 21ft 12kts
20-Mar-18 06:13 25.795190 -80.288964 176 21ft 10kts
20-Mar-18 06:14 25.793084 -80.287682 117 21ft 8kts
20-Mar-18 06:15 25.791989 -80.285497 119 21ft 7kts
20-Mar-18 06:16 25.790926 -80.283750 120 21ft 6kts
20-Mar-18 06:17 25.789428 -80.280825 118 21ft 16kts
20-Mar-18 06:18 25.788854 -80.276512 85 21ft 12kts
20-Mar-18 06:19 25.787622 -80.277980 266 21ft 49kts
20-Mar-18 06:20 25.786727 -80.323878 277 1250ft 194kts
20-Mar-18 06:21 25.824126 -80.371884 314 2959ft 232kts
20-Mar-18 06:22 25.891604 -80.386234 11 4835ft 282kts
20-Mar-18 06:23 25.956984 -80.341043 63 7406ft 299kts
20-Mar-18 06:24 25.983718 -80.250934 73 9799ft 311kts
20-Mar-18 06:25 25.995494 -80.148965 85 11229ft 366kts
20-Mar-18 06:26 26.001230 -80.028078 85 13146ft 410kts
20-Mar-18 06:27 26.007337 -79.897715 86 15640ft 432kts
20-Mar-18 06:28 26.020277 -79.762490 69 17924ft 450kts
20-Mar-18 06:29 26.087318 -79.643506 50 19962ft 466kts
20-Mar-18 06:30 26.165508 -79.524375 50 21896ft 484kts
20-Mar-18 06:31 26.245857 -79.401162 50 23623ft 500kts
20-Mar-18 06:32 26.328582 -79.274073 50 25261ft 513kts
20-Mar-18 06:33 26.420992 -79.152382 29 26785ft 512kts
20-Mar-18 06:34 26.550015 -79.090630 10 28237ft 506kts
20-Mar-18 06:35 26.686356 -79.045621 10 29557ft 515kts
20-Mar-18 06:36 26.823300 -78.998458 10 31052ft 514kts
20-Mar-18 06:37 26.959756 -78.951180 9 32391ft 513kts
20-Mar-18 06:38 27.073748 -78.911570 8 32933ft 513kts
20-Mar-18 06:39 27.232498 -78.856325 8 32923ft 512kts
20-Mar-18 06:40 27.368394 -78.808133 11 32918ft 517kts
20-Mar-18 06:41 27.474145 -78.738200 29 32919ft 537kts
20-Mar-18 06:42 27.591669 -78.634952 30 32923ft 536kts
20-Mar-18 06:43 27.730260 -78.515619 30 32912ft 536kts
20-Mar-18 06:44 27.848795 -78.413693 30 32912ft 535kts
20-Mar-18 06:45 27.947181 -78.328747 30 32910ft 534kts
20-Mar-18 06:46 28.065500 -78.226310 30 32908ft 534kts
20-Mar-18 06:47 28.183355 -78.123981 30 32905ft 534kts
20-Mar-18 06:48 28.301152 -78.021410 30 32903ft 534kts
20-Mar-18 06:49 28.419271 -77.918265 30 32900ft 534kts
20-Mar-18 06:50 28.536896 -77.815252 30 32898ft 534kts
20-Mar-18 06:51 28.654170 -77.712251 30 32895ft 533kts
20-Mar-18 06:52 28.771646 -77.608770 30 32891ft 532kts
20-Mar-18 06:53 28.888536 -77.505502 30 32887ft 532kts
20-Mar-18 06:54 29.005297 -77.402050 30 32866ft 532kts
20-Mar-18 06:55 29.122209 -77.298157 30 32861ft 530kts
20-Mar-18 06:56 29.238132 -77.194838 30 32856ft 524kts
20-Mar-18 06:57 29.353428 -77.091776 30 32849ft 524kts
20-Mar-18 06:58 29.468212 -76.989042 31 32841ft 524kts
20-Mar-18 06:59 29.582810 -76.885805 31 32803ft 524kts
20-Mar-18 07:00 29.685917 -76.763521 45 32789ft 536kts
20-Mar-18 07:01 29.781245 -76.632243 43 32776ft 534kts
20-Mar-18 07:02 29.878030 -76.502791 43 32822ft 535kts
20-Mar-18 07:03 29.975256 -76.372770 43 34115ft 530kts
20-Mar-18 07:04 30.071528 -76.243374 43 34756ft 533kts
20-Mar-18 07:05 30.167777 -76.113558 43 34747ft 533kts
20-Mar-18 07:06 30.264246 -75.983010 43 34740ft 533kts
20-Mar-18 07:07 30.360225 -75.852695 43 34734ft 532kts
20-Mar-18 07:08 30.455969 -75.722268 43 34728ft 532kts
20-Mar-18 07:09 30.551826 -75.591253 43 34736ft 531kts
20-Mar-18 07:10 30.647240 -75.460402 43 34776ft 531kts
20-Mar-18 07:11 30.742728 -75.329012 43 34780ft 531kts
20-Mar-18 07:12 30.837645 -75.197968 44 34766ft 530kts
20-Mar-18 07:13 30.932371 -75.066748 44 34762ft 529kts
20-Mar-18 07:14 31.027066 -74.935125 44 34757ft 528kts
20-Mar-18 07:15 31.121143 -74.803917 44 34757ft 528kts
20-Mar-18 07:16 31.215101 -74.672427 44 34753ft 528kts
20-Mar-18 07:17 31.309094 -74.540444 45 34753ft 526kts
20-Mar-18 07:18 31.402444 -74.408899 45 34750ft 525kts
20-Mar-18 07:19 31.495913 -74.276744 45 34741ft 526kts
20-Mar-18 07:20 31.588850 -74.144884 45 34737ft 525kts
20-Mar-18 07:21 31.681659 -74.013094 46 34733ft 525kts
20-Mar-18 07:22 31.774407 -73.880271 46 34731ft 524kts
20-Mar-18 07:23 31.866736 -73.747763 46 34725ft 524kts
20-Mar-18 07:24 31.958872 -73.614870 46 34722ft 525kts
20-Mar-18 07:25 32.051545 -73.481315 46 34719ft 526kts
20-Mar-18 07:26 32.144026 -73.348009 46 34714ft 526kts
20-Mar-18 07:27 32.236119 -73.213894 46 34734ft 526kts
20-Mar-18 07:28 32.328438 -73.079012 46 34733ft 527kts
20-Mar-18 07:29 32.420293 -72.944169 46 34708ft 527kts
20-Mar-18 07:30 32.512063 -72.808846 46 34700ft 528kts
20-Mar-18 07:31 32.604445 -72.673231 46 34702ft 527kts
20-Mar-18 07:32 32.696183 -72.537502 46 34725ft 528kts
20-Mar-18 07:33 32.788144 -72.400847 46 34729ft 528kts
20-Mar-18 07:34 32.879969 -72.264360 46 34733ft 530kts
20-Mar-18 07:35 32.971520 -72.126951 47 34735ft 531kts
20-Mar-18 07:36 33.063445 -71.988642 46 34740ft 532kts
20-Mar-18 07:37 33.154873 -71.850241 46 34742ft 532kts
20-Mar-18 07:38 33.246305 -71.711333 46 34747ft 533kts
20-Mar-18 07:39 33.338454 -71.571991 46 34754ft 533kts
20-Mar-18 07:40 33.429956 -71.432326 46 34758ft 534kts
20-Mar-18 07:41 33.521461 -71.292534 46 34765ft 534kts
20-Mar-18 07:42 33.612849 -71.151705 46 34771ft 534kts
20-Mar-18 07:43 33.702831 -71.010319 50 34778ft 537kts
20-Mar-18 07:44 33.781212 -70.857238 54 34787ft 538kts
20-Mar-18 07:45 33.859414 -70.703388 53 34795ft 538kts
20-Mar-18 07:46 33.938429 -70.550859 52 34804ft 538kts
20-Mar-18 07:47 34.017351 -70.397216 52 34812ft 538kts
20-Mar-18 07:48 34.095907 -70.243435 52 34818ft 539kts
20-Mar-18 07:49 34.174254 -70.089358 52 34821ft 538kts
20-Mar-18 07:50 34.252609 -69.934584 52 34810ft 539kts
20-Mar-18 07:51 34.330508 -69.780099 52 34818ft 539kts
20-Mar-18 07:52 34.408405 -69.624856 52 34825ft 540kts
20-Mar-18 07:53 34.486440 -69.468694 52 34833ft 540kts
20-Mar-18 07:54 34.564008 -69.312771 52 34842ft 541kts
20-Mar-18 07:55 34.641424 -69.156465 51 34843ft 541kts
20-Mar-18 07:56 34.718928 -68.999289 51 34846ft 541kts
20-Mar-18 07:57 34.795932 -68.842434 51 34980ft 541kts
20-Mar-18 07:58 34.872488 -68.685782 51 34983ft 541kts
20-Mar-18 07:59 34.949461 -68.527547 51 34989ft 540kts
20-Mar-18 08:00 35.025897 -68.369731 51 34974ft 541kts
20-Mar-18 08:01 35.102524 -68.210775 51 34975ft 543kts
20-Mar-18 08:02 35.178755 -68.051941 50 34978ft 542kts
20-Mar-18 08:03 35.254708 -67.892915 50 34981ft 541kts
20-Mar-18 08:04 35.330524 -67.733482 50 34985ft 541kts
20-Mar-18 08:05 35.406000 -67.574010 50 34988ft 541kts
20-Mar-18 08:06 35.481086 -67.414621 50 34991ft 540kts
20-Mar-18 08:07 35.556253 -67.254312 50 34976ft 540kts
20-Mar-18 08:08 35.630837 -67.094497 50 34979ft 538kts
20-Mar-18 08:09 35.705237 -66.934325 50 34982ft 538kts
20-Mar-18 08:10 35.778998 -66.774777 50 34984ft 537kts
20-Mar-18 08:11 35.852403 -66.615257 50 34986ft 535kts
20-Mar-18 08:12 35.925685 -66.455226 50 34988ft 534kts
20-Mar-18 08:13 35.998410 -66.295687 50 34989ft 533kts
20-Mar-18 08:14 36.070786 -66.136147 50 34990ft 533kts
20-Mar-18 08:15 36.143195 -65.975773 50 34982ft 533kts
20-Mar-18 08:16 36.215167 -65.815587 51 34982ft 533kts
20-Mar-18 08:17 36.286966 -65.655018 51 34983ft 534kts
20-Mar-18 08:18 36.358826 -65.493536 51 34982ft 533kts
20-Mar-18 08:19 36.430201 -65.332373 51 34980ft 533kts
20-Mar-18 08:20 36.501605 -65.170335 51 34977ft 534kts
20-Mar-18 08:21 36.572559 -65.008521 51 34977ft 534kts
20-Mar-18 08:22 36.643130 -64.846801 51 34975ft 531kts
20-Mar-18 08:23 36.713644 -64.684413 51 34975ft 532kts
20-Mar-18 08:24 36.783706 -64.522258 52 35034ft 532kts
20-Mar-18 08:25 36.853428 -64.360095 52 35028ft 530kts
20-Mar-18 08:26 36.923086 -64.197237 52 35004ft 530kts
20-Mar-18 08:27 36.992344 -64.034522 52 35002ft 531kts
20-Mar-18 08:28 37.061405 -63.871461 52 35000ft 531kts
20-Mar-18 08:29 37.130572 -63.707298 52 34997ft 532kts
20-Mar-18 08:30 37.199302 -63.543345 52 34995ft 532kts
20-Mar-18 08:31 37.268054 -63.378487 52 34988ft 532kts
20-Mar-18 08:32 37.336367 -63.213866 53 34984ft 532kts
20-Mar-18 08:33 37.404316 -63.049251 53 34982ft 530kts
20-Mar-18 08:34 37.472172 -62.884010 53 34977ft 530kts
20-Mar-18 08:35 37.539597 -62.718962 53 34957ft 531kts
20-Mar-18 08:36 37.606810 -62.553573 53 34946ft 531kts
20-Mar-18 08:37 37.674041 -62.387267 53 34942ft 531kts
20-Mar-18 08:38 37.740820 -62.221203 53 34939ft 531kts
20-Mar-18 08:39 37.807453 -62.054619 53 34936ft 532kts
20-Mar-18 08:40 37.874122 -61.887053 53 34932ft 532kts
20-Mar-18 08:41 37.940294 -61.719842 53 34928ft 532kts
20-Mar-18 08:42 38.006417 -61.551856 54 34924ft 531kts
20-Mar-18 08:43 38.072215 -61.383783 54 34920ft 534kts
20-Mar-18 08:44 38.138277 -61.214090 53 34916ft 538kts
20-Mar-18 08:45 38.204281 -61.043632 53 34914ft 535kts
20-Mar-18 08:46 38.269650 -60.873866 53 34911ft 535kts
20-Mar-18 08:47 38.334602 -60.704249 53 34908ft 533kts
20-Mar-18 08:48 38.399702 -60.534313 54 34905ft 533kts
20-Mar-18 08:49 38.463790 -60.364295 54 34902ft 532kts
20-Mar-18 08:50 38.528976 -60.194502 52 34900ft 529kts
20-Mar-18 08:51 38.596355 -60.027490 53 34897ft 530kts
20-Mar-18 08:52 38.663127 -59.859811 53 34863ft 528kts
20-Mar-18 08:53 38.730672 -59.692042 53 34860ft 530kts
20-Mar-18 08:54 38.797441 -59.523656 54 34856ft 531kts
20-Mar-18 08:55 38.863979 -59.354696 54 34851ft 532kts
20-Mar-18 08:56 38.919532 -59.212859 55 34849ft 533kts
20-Mar-18 08:57 38.996739 -59.014642 55 34844ft 531kts
20-Mar-18 08:58 39.062601 -58.844522 56 34842ft 532kts
20-Mar-18 08:59 39.117617 -58.701691 56 34840ft 533kts
20-Mar-18 09:00 39.183249 -58.530403 56 34841ft 534kts
20-Mar-18 09:01 39.259826 -58.329308 57 34834ft 535kts
20-Mar-18 09:02 39.314252 -58.185546 58 34832ft 536kts
20-Mar-18 09:03 39.379436 -58.012462 58 34830ft 537kts
20-Mar-18 09:04 39.455468 -57.809310 59 34828ft 537kts
20-Mar-18 09:05 39.509475 -57.664139 59 34827ft 538kts
20-Mar-18 09:06 39.574066 -57.489591 59 34825ft 538kts
20-Mar-18 09:07 39.638590 -57.314189 59 34823ft 538kts
20-Mar-18 09:08 39.702639 -57.139042 60 34821ft 538kts
20-Mar-18 09:09 39.766466 -56.963452 60 34819ft 538kts
20-Mar-18 09:10 39.830308 -56.786764 61 34818ft 539kts
20-Mar-18 09:11 39.893736 -56.610143 61 34816ft 540kts
20-Mar-18 09:12 39.957273 -56.432141 62 34813ft 541kts
20-Mar-18 09:13 40.020439 -56.254094 62 34813ft 542kts
20-Mar-18 09:14 40.083468 -56.075317 62 34818ft 543kts
20-Mar-18 09:15 40.146421 -55.895637 62 34816ft 543kts
20-Mar-18 09:16 40.208915 -55.716159 63 34814ft 543kts
20-Mar-18 09:17 40.271192 -55.536169 63 34812ft 544kts
20-Mar-18 09:18 40.333452 -55.355087 63 34810ft 544kts
20-Mar-18 09:19 40.395267 -55.174145 64 34808ft 545kts
20-Mar-18 09:20 40.456874 -54.992646 64 34806ft 545kts
20-Mar-18 09:21 40.518449 -54.810061 65 34804ft 545kts
20-Mar-18 09:22 40.579538 -54.627744 65 34802ft 545kts
20-Mar-18 09:23 40.640368 -54.445003 65 34720ft 546kts
20-Mar-18 09:24 40.701190 -54.261075 65 34715ft 547kts
20-Mar-18 09:25 40.761544 -54.077354 66 34737ft 547kts
20-Mar-18 09:26 40.821869 -53.892514 66 34736ft 548kts
20-Mar-18 09:27 40.881811 -53.707569 66 34734ft 549kts
20-Mar-18 09:28 40.941578 -53.521923 67 34733ft 549kts
20-Mar-18 09:29 41.001274 -53.335239 67 34732ft 550kts
20-Mar-18 09:30 41.060564 -53.148546 67 34731ft 551kts
20-Mar-18 09:31 41.119781 -52.960779 67 34729ft 552kts
20-Mar-18 09:32 41.178603 -52.772968 68 34704ft 552kts
20-Mar-18 09:33 41.237189 -52.584597 68 34759ft 553kts
20-Mar-18 09:34 41.295681 -52.395204 68 34762ft 553kts
20-Mar-18 09:35 41.353741 -52.205849 68 34757ft 554kts
20-Mar-18 09:36 41.411602 -52.015795 69 34755ft 555kts
20-Mar-18 09:37 41.469423 -51.824498 69 34754ft 556kts
20-Mar-18 09:38 41.526778 -51.633349 69 34752ft 555kts
20-Mar-18 09:39 41.583791 -51.441965 70 34751ft 555kts
20-Mar-18 09:40 41.640632 -51.249744 70 34752ft 555kts
20-Mar-18 09:41 41.696939 -51.057897 70 34750ft 554kts
20-Mar-18 09:42 41.753126 -50.865044 71 34749ft 555kts
20-Mar-18 09:43 41.808824 -50.672412 71 34748ft 555kts
20-Mar-18 09:44 41.864204 -50.479449 72 34721ft 556kts
20-Mar-18 09:45 41.919932 -50.285362 72 34720ft 555kts
20-Mar-18 09:46 41.974399 -50.091388 72 34719ft 556kts
20-Mar-18 09:47 42.033540 -49.899223 66 34721ft 559kts
20-Mar-18 09:48 42.102552 -49.711253 66 34718ft 559kts
20-Mar-18 09:49 42.169736 -49.522740 66 34719ft 559kts
20-Mar-18 09:50 42.237173 -49.333593 67 34718ft 558kts
20-Mar-18 09:51 42.303562 -49.144440 67 34718ft 558kts
20-Mar-18 09:52 42.369590 -48.954853 67 34718ft 558kts
20-Mar-18 09:53 42.435519 -48.764223 68 34718ft 558kts
20-Mar-18 09:54 42.500923 -48.573817 68 34716ft 557kts
20-Mar-18 09:55 42.565965 -48.383115 68 34719ft 558kts
20-Mar-18 09:56 42.630949 -48.191269 68 34720ft 558kts
20-Mar-18 09:57 42.695376 -47.999722 68 34720ft 558kts
20-Mar-18 09:58 42.759748 -47.806996 69 34722ft 558kts
20-Mar-18 09:59 42.823577 -47.614522 69 34722ft 558kts
20-Mar-18 10:00 42.887081 -47.421657 69 34724ft 559kts
20-Mar-18 10:01 42.949863 -47.229622 69 34726ft 558kts
20-Mar-18 10:02 43.013360 -47.033997 69 34727ft 558kts
20-Mar-18 10:03 43.075869 -46.839989 69 34728ft 558kts
20-Mar-18 10:04 43.138312 -46.644778 70 34728ft 559kts
20-Mar-18 10:05 43.200209 -46.449826 70 34730ft 559kts
20-Mar-18 10:06 43.262038 -46.253651 70 34733ft 559kts
20-Mar-18 10:07 43.323296 -46.057835 71 34734ft 559kts
20-Mar-18 10:08 43.384248 -45.861518 71 34736ft 559kts
20-Mar-18 10:09 43.445008 -45.664356 71 34739ft 559kts
20-Mar-18 10:10 43.505183 -45.467590 71 34742ft 558kts
20-Mar-18 10:11 43.564938 -45.270710 71 34760ft 557kts
20-Mar-18 10:12 43.624369 -45.073374 71 34763ft 555kts
20-Mar-18 10:13 43.683191 -44.876573 71 34767ft 555kts
20-Mar-18 10:14 43.741568 -44.679753 71 34770ft 553kts
20-Mar-18 10:15 43.799651 -44.482393 72 34774ft 552kts
20-Mar-18 10:16 43.857055 -44.285828 72 34778ft 551kts
20-Mar-18 10:17 43.914264 -44.088354 72 34781ft 551kts
20-Mar-18 10:18 43.970943 -43.891197 72 34784ft 551kts
20-Mar-18 10:19 44.027264 -43.693698 72 34789ft 551kts
20-Mar-18 10:20 44.083432 -43.495176 72 34793ft 551kts
20-Mar-18 10:21 44.139052 -43.296997 72 34798ft 550kts
20-Mar-18 10:22 44.194248 -43.098762 73 34802ft 549kts
20-Mar-18 10:23 44.249156 -42.899927 73 34807ft 547kts
20-Mar-18 10:24 44.303463 -42.701676 73 34813ft 547kts
20-Mar-18 10:25 44.357363 -42.503282 73 34816ft 547kts
20-Mar-18 10:26 44.411038 -42.304075 73 34821ft 546kts
20-Mar-18 10:27 44.464142 -42.105358 73 34826ft 545kts
20-Mar-18 10:28 44.516980 -41.905986 73 34831ft 545kts
20-Mar-18 10:29 44.569228 -41.707159 74 34835ft 544kts
20-Mar-18 10:30 44.621110 -41.508069 74 34840ft 544kts
20-Mar-18 10:31 44.672826 -41.307941 74 34846ft 545kts
20-Mar-18 10:32 44.724052 -41.107966 74 34850ft 544kts
20-Mar-18 10:33 44.774869 -40.907910 74 34855ft 544kts
20-Mar-18 10:34 44.825444 -40.707043 75 34861ft 543kts
20-Mar-18 10:35 44.875476 -40.506609 75 34866ft 543kts
20-Mar-18 10:36 44.925753 -40.305429 75 34869ft 542kts
20-Mar-18 10:37 44.974702 -40.104269 75 34876ft 542kts
20-Mar-18 10:38 45.024155 -39.903155 75 34881ft 543kts
20-Mar-18 10:39 45.074165 -39.701275 75 34886ft 543kts
20-Mar-18 10:40 45.123853 -39.499262 74 35094ft 547kts
20-Mar-18 10:41 45.174230 -39.297704 75 36389ft 542kts
20-Mar-18 10:42 45.223714 -39.094788 75 36903ft 544kts
20-Mar-18 10:43 45.272549 -38.892389 75 36906ft 542kts
20-Mar-18 10:44 45.320964 -38.689828 75 36911ft 542kts
20-Mar-18 10:45 45.369182 -38.486232 75 36916ft 543kts
20-Mar-18 10:46 45.416918 -38.282772 75 36919ft 543kts
20-Mar-18 10:47 45.464389 -38.078620 75 36926ft 541kts
20-Mar-18 10:48 45.511322 -37.874851 76 36931ft 542kts
20-Mar-18 10:49 45.557915 -37.670629 76 36936ft 542kts
20-Mar-18 10:50 45.604346 -37.465184 76 36940ft 543kts
20-Mar-18 10:51 45.650274 -37.260008 76 36945ft 543kts
20-Mar-18 10:52 45.695871 -37.054304 76 36958ft 544kts
20-Mar-18 10:53 45.741337 -36.847175 76 36964ft 544kts
20-Mar-18 10:54 45.786303 -36.640320 76 36968ft 545kts
20-Mar-18 10:55 45.830915 -36.432986 76 36969ft 545kts
20-Mar-18 10:56 45.875285 -36.224731 76 36976ft 545kts
20-Mar-18 10:57 45.919119 -36.016895 76 36980ft 544kts
20-Mar-18 10:58 45.962706 -35.808103 77 36984ft 544kts
20-Mar-18 10:59 46.005765 -35.599692 77 36989ft 544kts
20-Mar-18 11:00 46.048399 -35.391178 77 36992ft 544kts
20-Mar-18 11:01 46.090856 -35.181340 77 36995ft 544kts
20-Mar-18 11:02 46.132832 -34.971652 77 37000ft 546kts
20-Mar-18 11:03 46.174516 -34.761184 77 37002ft 547kts
20-Mar-18 11:04 46.216116 -34.548870 77 37005ft 550kts
20-Mar-18 11:05 46.257343 -34.336112 77 37008ft 551kts
20-Mar-18 11:06 46.298394 -34.121857 77 37011ft 552kts
20-Mar-18 11:07 46.338958 -33.907795 77 37057ft 552kts
20-Mar-18 11:08 46.379084 -33.693592 78 37058ft 551kts
20-Mar-18 11:09 46.418836 -33.478929 77 37059ft 550kts
20-Mar-18 11:10 46.457891 -33.265564 77 37060ft 547kts
20-Mar-18 11:11 46.490056 -33.087983 77 37060ft 546kts
20-Mar-18 11:12 46.534649 -32.838857 77 37061ft 545kts
20-Mar-18 11:13 46.572317 -32.625708 77 37062ft 545kts
20-Mar-18 11:14 46.603611 -32.446667 78 37059ft 553kts
20-Mar-18 11:15 46.647395 -32.193069 78 37108ft 553kts
20-Mar-18 11:16 46.678213 -32.012351 78 37107ft 553kts
20-Mar-18 11:17 46.721008 -31.758225 78 37107ft 552kts
20-Mar-18 11:18 46.751099 -31.577277 78 37107ft 552kts
20-Mar-18 11:19 46.786755 -31.360306 78 37105ft 550kts
20-Mar-18 11:20 46.822066 -31.142684 78 37106ft 549kts
20-Mar-18 11:21 46.856782 -30.925914 78 37106ft 548kts
20-Mar-18 11:22 46.891041 -30.709168 78 37106ft 548kts
20-Mar-18 11:23 46.924965 -30.491660 78 37105ft 547kts
20-Mar-18 11:24 46.958758 -30.274942 78 37104ft 547kts
20-Mar-18 11:25 46.991415 -30.057316 78 37104ft 546kts
20-Mar-18 11:26 47.036148 -29.845210 68 37105ft 546kts
20-Mar-18 11:27 47.089720 -29.637362 69 37100ft 545kts
20-Mar-18 11:28 47.141924 -29.428120 68 37101ft 545kts
20-Mar-18 11:29 47.193693 -29.219351 69 37100ft 543kts
20-Mar-18 11:30 47.244539 -29.010218 69 37099ft 544kts
20-Mar-18 11:31 47.295113 -28.799964 69 37098ft 543kts
20-Mar-18 11:32 47.345021 -28.590509 69 37193ft 541kts
20-Mar-18 11:33 47.394488 -28.380889 69 37237ft 541kts
20-Mar-18 11:34 47.443590 -28.170794 69 37237ft 540kts
20-Mar-18 11:35 47.492113 -27.961148 69 37236ft 539kts
20-Mar-18 11:36 47.540311 -27.750873 69 37235ft 538kts
20-Mar-18 11:37 47.587938 -27.541041 69 37234ft 538kts
20-Mar-18 11:38 47.635087 -27.331218 69 37235ft 537kts
20-Mar-18 11:39 47.681988 -27.120450 69 37232ft 537kts
20-Mar-18 11:40 47.728274 -26.910332 70 37231ft 535kts
20-Mar-18 11:41 47.774246 -26.699503 69 37230ft 534kts
20-Mar-18 11:42 47.819553 -26.489588 69 37230ft 533kts
20-Mar-18 11:43 47.864376 -26.279834 70 37228ft 532kts
20-Mar-18 11:44 47.908816 -26.069701 70 37231ft 532kts
20-Mar-18 11:45 47.953016 -25.858498 70 37230ft 532kts
20-Mar-18 11:46 47.996683 -25.647624 70 37223ft 532kts
20-Mar-18 11:47 48.040001 -25.436247 71 37214ft 529kts
20-Mar-18 11:48 48.082613 -25.226085 71 37216ft 528kts
20-Mar-18 11:49 48.124699 -25.016271 71 37174ft 525kts
20-Mar-18 11:50 48.166342 -24.806428 71 37312ft 524kts
20-Mar-18 11:51 48.207475 -24.596902 71 37379ft 524kts
20-Mar-18 11:52 48.248270 -24.386815 71 37468ft 524kts
20-Mar-18 11:53 48.288549 -24.177088 71 37473ft 523kts
20-Mar-18 11:54 48.328415 -23.967178 71 37475ft 523kts
20-Mar-18 11:55 48.368000 -23.756386 71 37475ft 522kts
20-Mar-18 11:56 48.406961 -23.546602 71 37478ft 520kts
20-Mar-18 11:57 48.445430 -23.337120 71 37469ft 519kts
20-Mar-18 11:58 48.483473 -23.127553 72 37471ft 516kts
20-Mar-18 11:59 48.520890 -22.919030 72 37472ft 515kts
20-Mar-18 12:00 48.557970 -22.709932 72 37473ft 514kts
20-Mar-18 12:01 48.594456 -22.501845 72 37474ft 512kts
20-Mar-18 12:02 48.630485 -22.293911 72 37476ft 512kts
20-Mar-18 12:03 48.666246 -22.085033 72 37478ft 512kts
20-Mar-18 12:04 48.701481 -21.876740 72 37480ft 510kts
20-Mar-18 12:05 48.736225 -21.668858 72 37481ft 509kts
20-Mar-18 12:06 48.770615 -21.460559 72 37483ft 508kts
20-Mar-18 12:07 48.804435 -21.253175 72 37485ft 507kts
20-Mar-18 12:08 48.837945 -21.045128 73 37486ft 505kts
20-Mar-18 12:09 48.870893 -20.838006 73 37489ft 505kts
20-Mar-18 12:10 48.903438 -20.630818 73 37491ft 504kts
20-Mar-18 12:11 48.935981 -20.423361 72 37493ft 503kts
20-Mar-18 12:12 48.967645 -20.216208 73 37493ft 503kts
20-Mar-18 12:13 48.998144 -20.008972 76 37495ft 504kts
20-Mar-18 12:14 49.005919 -19.795090 87 37497ft 504kts
20-Mar-18 12:15 49.007513 -19.582151 86 37500ft 503kts
20-Mar-18 12:16 49.011235 -19.369401 85 37502ft 503kts
20-Mar-18 12:17 49.015022 -19.156138 85 37504ft 502kts
20-Mar-18 12:18 49.017926 -18.943703 85 37507ft 502kts
20-Mar-18 12:19 49.020394 -18.730880 86 37510ft 500kts
20-Mar-18 12:20 49.022454 -18.519197 86 37511ft 500kts
20-Mar-18 12:21 49.024125 -18.307632 86 37514ft 500kts
20-Mar-18 12:22 49.025411 -18.095460 86 37516ft 499kts
20-Mar-18 12:23 49.026302 -17.884172 86 37518ft 498kts
20-Mar-18 12:24 49.026814 -17.673795 86 37521ft 497kts
20-Mar-18 12:25 49.026939 -17.462708 86 37523ft 497kts
20-Mar-18 12:26 49.026680 -17.252512 86 37526ft 497kts
20-Mar-18 12:27 49.026039 -17.041777 86 37528ft 496kts
20-Mar-18 12:28 49.025019 -16.832031 86 37530ft 495kts
20-Mar-18 12:29 49.023622 -16.622506 86 37532ft 495kts
20-Mar-18 12:30 49.021838 -16.412560 86 37535ft 494kts
20-Mar-18 12:31 49.019688 -16.203454 87 37537ft 494kts
20-Mar-18 12:32 49.017161 -15.994459 87 37539ft 494kts
20-Mar-18 12:33 49.014259 -15.785556 87 37542ft 491kts
20-Mar-18 12:34 49.011002 -15.577893 87 37544ft 491kts
20-Mar-18 12:35 49.007952 -15.370399 87 37546ft 490kts
20-Mar-18 12:36 49.003576 -15.162531 87 37548ft 490kts
20-Mar-18 12:37 48.999512 -14.955720 85 37569ft 487kts
20-Mar-18 12:38 49.000355 -14.749109 85 37574ft 486kts
20-Mar-18 12:39 49.000338 -14.543701 85 37573ft 485kts
20-Mar-18 12:40 49.001499 -14.338617 85 37576ft 485kts
20-Mar-18 12:41 49.000625 -14.132747 85 37575ft 485kts
20-Mar-18 12:42 49.012367 -13.931354 69 37576ft 472kts
20-Mar-18 12:43 49.049544 -13.741048 67 37578ft 469kts
20-Mar-18 12:44 49.086219 -13.549577 68 37600ft 469kts
20-Mar-18 12:45 49.123258 -13.359230 67 37602ft 468kts
20-Mar-18 12:46 49.159642 -13.168618 68 37605ft 468kts
20-Mar-18 12:47 49.195493 -12.977191 68 37607ft 467kts
20-Mar-18 12:48 49.230787 -12.786509 68 37609ft 466kts
20-Mar-18 12:49 49.265809 -12.595288 68 37611ft 465kts
20-Mar-18 12:50 49.300348 -12.404749 68 37614ft 465kts
20-Mar-18 12:51 49.334529 -12.214171 68 37616ft 464kts
20-Mar-18 12:52 49.368499 -12.022741 69 37618ft 464kts
20-Mar-18 12:53 49.401963 -11.832139 69 37620ft 461kts
20-Mar-18 12:54 49.435023 -11.641757 69 37623ft 462kts
20-Mar-18 12:55 49.467846 -11.450754 69 37624ft 461kts
20-Mar-18 12:56 49.500223 -11.260231 69 37626ft 460kts
20-Mar-18 12:57 49.532322 -11.069243 69 37625ft 460kts
20-Mar-18 12:58 49.563946 -10.878978 69 37626ft 459kts
20-Mar-18 12:59 49.595200 -10.688819 69 37627ft 458kts
20-Mar-18 13:00 49.626201 -10.498082 69 37627ft 457kts
20-Mar-18 13:01 49.656741 -10.308000 69 37627ft 457kts
20-Mar-18 13:02 49.686937 -10.117885 70 37627ft 456kts
20-Mar-18 13:03 49.716911 -9.926935 70 37626ft 456kts
20-Mar-18 13:04 49.746490 -9.736336 70 37627ft 456kts
20-Mar-18 13:05 49.775813 -9.545100 70 37612ft 456kts
20-Mar-18 13:06 49.804718 -9.354309 70 37635ft 455kts
20-Mar-18 13:07 49.833263 -9.163626 70 37633ft 455kts
20-Mar-18 13:08 49.861550 -8.972337 71 37633ft 454kts
20-Mar-18 13:09 49.889394 -8.781701 71 37632ft 453kts
20-Mar-18 13:10 49.916875 -8.591205 71 37630ft 453kts
20-Mar-18 13:11 49.944640 -8.400188 71 37622ft 452kts
20-Mar-18 13:12 49.971214 -8.209527 71 37624ft 452kts
20-Mar-18 13:13 49.997479 -8.018468 71 37622ft 452kts
20-Mar-18 13:14 50.024612 -7.827193 71 37622ft 452kts
20-Mar-18 13:15 50.051421 -7.636246 71 37621ft 452kts
20-Mar-18 13:16 50.079314 -7.445121 71 37620ft 452kts
20-Mar-18 13:17 50.105442 -7.253611 71 37617ft 453kts
20-Mar-18 13:18 50.131422 -7.062060 72 37616ft 452kts
20-Mar-18 13:19 50.156921 -6.869621 72 37614ft 452kts
20-Mar-18 13:20 50.182010 -6.677517 72 37612ft 452kts
20-Mar-18 13:21 50.207704 -6.485289 71 37614ft 451kts
20-Mar-18 13:22 50.233158 -6.293517 72 37614ft 452kts
20-Mar-18 13:23 50.257216 -6.101355 72 37614ft 451kts
20-Mar-18 13:24 50.281664 -5.908633 72 37614ft 451kts
20-Mar-18 13:25 50.306205 -5.716510 72 37614ft 451kts
20-Mar-18 13:26 50.330326 -5.524094 72 37614ft 451kts
20-Mar-18 13:27 50.355312 -5.331267 72 37614ft 451kts
20-Mar-18 13:28 50.375590 -5.170825 72 37613ft 451kts
20-Mar-18 13:29 50.403376 -4.944880 72 37612ft 452kts
20-Mar-18 13:30 50.426759 -4.751459 73 37613ft 452kts
20-Mar-18 13:31 50.446009 -4.590033 73 37611ft 452kts
20-Mar-18 13:32 50.472660 -4.363177 73 37605ft 452kts
20-Mar-18 13:33 50.488860 -4.228454 73 37602ft 452kts
20-Mar-18 13:34 50.488860 -4.228454 73 37602ft 452kts
20-Mar-18 13:35 50.488860 -4.228454 73 37602ft 452kts
20-Mar-18 13:36 50.488860 -4.228454 73 37602ft 452kts
20-Mar-18 13:37 50.488860 -4.228454 73 37602ft 452kts
20-Mar-18 13:38 50.488860 -4.228454 73 37602ft 452kts
20-Mar-18 13:39 50.488860 -4.228454 73 37602ft 452kts
20-Mar-18 13:40 50.488860 -4.228454 73 37602ft 452kts
20-Mar-18 13:41 50.488860 -4.228454 73 37602ft 452kts
20-Mar-18 13:42 50.488860 -4.228454 73 37602ft 452kts
20-Mar-18 13:43 50.488860 -4.228454 73 37602ft 452kts
20-Mar-18 13:44 50.488860 -4.228454 73 37602ft 452kts
20-Mar-18 13:45 50.488860 -4.228454 73 37602ft 452kts
20-Mar-18 13:46 50.488860 -4.228454 73 37602ft 452kts
20-Mar-18 13:47 50.488860 -4.228454 73 37602ft 452kts
20-Mar-18 13:48 50.488860 -4.228454 73 37602ft 452kts
20-Mar-18 13:49 50.488860 -4.228454 73 37602ft 452kts
20-Mar-18 13:50 50.488860 -4.228454 73 37602ft 452kts
20-Mar-18 13:51 50.488860 -4.228454 73 37602ft 452kts
20-Mar-18 13:52 50.488860 -4.228454 73 37602ft 452kts
20-Mar-18 13:53 50.488860 -4.228454 73 37602ft 452kts
20-Mar-18 13:54 50.488860 -4.228454 73 37602ft 452kts
20-Mar-18 13:55 50.488860 -4.228454 73 37602ft 452kts
20-Mar-18 13:56 50.488860 -4.228454 73 37602ft 452kts
20-Mar-18 13:57 50.488860 -4.228454 73 37602ft 452kts
20-Mar-18 13:58 50.488860 -4.228454 73 37602ft 452kts
20-Mar-18 13:59 50.488860 -4.228454 73 37602ft 452kts
20-Mar-18 14:00 50.488860 -4.228454 73 37602ft 452kts
20-Mar-18 14:01 50.488860 -4.228454 73 37602ft 452kts
20-Mar-18 14:02 50.488860 -4.228454 73 37602ft 452kts
20-Mar-18 14:03 50.488860 -4.228454 73 37602ft 452kts
20-Mar-18 14:04 50.488860 -4.228454 73 37602ft 452kts
20-Mar-18 14:05 50.488860 -4.228454 73 37602ft 452kts
20-Mar-18 14:06 50.488860 -4.228454 73 37602ft 452kts
20-Mar-18 14:07 50.488860 -4.228454 73 37602ft 452kts
20-Mar-18 14:08 50.488860 -4.228454 73 37602ft 452kts
20-Mar-18 14:09 50.488860 -4.228454 73 37602ft 452kts
20-Mar-18 14:10 50.488860 -4.228454 73 37602ft 452kts
20-Mar-18 14:11 50.488860 -4.228454 73 37602ft 452kts
20-Mar-18 14:12 50.488860 -4.228454 73 37602ft 452kts
20-Mar-18 14:13 50.488860 -4.228454 73 37602ft 452kts
20-Mar-18 14:14 50.488860 -4.228454 73 37602ft 452kts
20-Mar-18 14:15 50.488860 -4.228454 73 37602ft 452kts
20-Mar-18 14:16 50.488860 -4.228454 73 37602ft 452kts
20-Mar-18 14:17 50.488860 -4.228454 73 37602ft 452kts
20-Mar-18 14:18 50.488860 -4.228454 73 37602ft 452kts
20-Mar-18 14:19 50.488860 -4.228454 73 37602ft 452kts
20-Mar-18 14:20 50.488860 -4.228454 73 37602ft 452kts
20-Mar-18 14:21 50.488860 -4.228454 73 37602ft 452kts
20-Mar-18 14:22 50.488860 -4.228454 73 37602ft 452kts
20-Mar-18 14:23 50.488860 -4.228454 73 37602ft 452kts
20-Mar-18 14:24 50.488860 -4.228454 73 37602ft 452kts
20-Mar-18 14:25 50.488860 -4.228454 73 37602ft 452kts
20-Mar-18 14:26 50.488860 -4.228454 73 37602ft 452kts
20-Mar-18 14:27 50.488860 -4.228454 73 37602ft 452kts
20-Mar-18 14:28 50.488860 -4.228454 73 37602ft 452kts
20-Mar-18 14:29 50.488860 -4.228454 73 37602ft 452kts
20-Mar-18 14:30 50.488860 -4.228454 73 37602ft 452kts
20-Mar-18 14:31 50.488860 -4.228454 73 37602ft 452kts
20-Mar-18 14:32 50.488860 -4.228454 73 37602ft 452kts
20-Mar-18 14:33 50.488860 -4.228454 73 37602ft 452kts
20-Mar-18 14:34 50.488860 -4.228454 73 37602ft 452kts
20-Mar-18 14:35 50.488860 -4.228454 73 37602ft 452kts
20-Mar-18 14:36 50.488860 -4.228454 73 37602ft 452kts
20-Mar-18 14:37 50.488860 -4.228454 73 37602ft 452kts
20-Mar-18 14:38 50.488860 -4.228454 73 37602ft 452kts
20-Mar-18 14:39 50.488860 -4.228454 73 37602ft 452kts
20-Mar-18 14:40 50.488860 -4.228454 73 37602ft 452kts
20-Mar-18 14:41 50.488860 -4.228454 73 37602ft 452kts
20-Mar-18 14:42 50.488860 -4.228454 73 37602ft 452kts
20-Mar-18 14:43 50.488860 -4.228454 73 37602ft 452kts
20-Mar-18 14:44 50.488860 -4.228454 73 37602ft 452kts
20-Mar-18 14:45 50.488860 -4.228454 73 37602ft 452kts
20-Mar-18 14:46 50.488860 -4.228454 73 37602ft 452kts
20-Mar-18 14:47 50.488860 -4.228454 73 37602ft 452kts
20-Mar-18 14:48 50.488860 -4.228454 73 37602ft 452kts
20-Mar-18 14:49 50.488860 -4.228454 73 37602ft 452kts
20-Mar-18 14:50 50.488860 -4.228454 73 37602ft 452kts
20-Mar-18 14:51 50.488860 -4.228454 73 37602ft 452kts
20-Mar-18 14:52 50.488860 -4.228454 73 37602ft 452kts
20-Mar-18 14:53 50.488860 -4.228454 73 37602ft 452kts
20-Mar-18 14:54 50.488860 -4.228454 73 37602ft 452kts
20-Mar-18 14:55 50.488860 -4.228454 73 37602ft 452kts
20-Mar-18 14:56 50.488860 -4.228454 73 37602ft 452kts
20-Mar-18 14:57 50.488860 -4.228454 73 37602ft 452kts
20-Mar-18 14:58 50.488860 -4.228454 73 37602ft 452kts
20-Mar-18 14:59 50.488860 -4.228454 73 37602ft 452kts
20-Mar-18 15:00 50.488860 -4.228454 73 37602ft 452kts
20-Mar-18 15:01 50.488860 -4.228454 73 37602ft 452kts
20-Mar-18 15:02 50.488860 -4.228454 73 37602ft 452kts
20-Mar-18 15:03 50.488860 -4.228454 73 37602ft 452kts
20-Mar-18 15:04 50.488860 -4.228454 73 37602ft 452kts
20-Mar-18 15:05 50.488860 -4.228454 73 37602ft 452kts
20-Mar-18 15:06 50.488860 -4.228454 73 37602ft 452kts
20-Mar-18 15:07 50.488860 -4.228454 73 37602ft 452kts
20-Mar-18 15:08 50.488860 -4.228454 73 37602ft 452kts
20-Mar-18 15:09 50.488860 -4.228454 73 37602ft 452kts
20-Mar-18 15:10 50.488860 -4.228454 73 37602ft 452kts
20-Mar-18 15:11 50.488860 -4.228454 73 37602ft 452kts
20-Mar-18 15:12 50.488860 -4.228454 73 37602ft 452kts
20-Mar-18 15:13 50.488860 -4.228454 73 37602ft 452kts
20-Mar-18 15:14 50.488860 -4.228454 73 37602ft 452kts
20-Mar-18 15:15 50.488860 -4.228454 73 37602ft 452kts
20-Mar-18 15:16 50.488860 -4.228454 73 37602ft 452kts
20-Mar-18 15:17 50.488860 -4.228454 73 37602ft 452kts
20-Mar-18 15:18 50.488860 -4.228454 73 37602ft 452kts
20-Mar-18 15:19 50.488860 -4.228454 73 37602ft 452kts
20-Mar-18 15:20 50.488860 -4.228454 73 37602ft 452kts
20-Mar-18 15:21 50.488860 -4.228454 73 37602ft 452kts
20-Mar-18 15:22 50.488860 -4.228454 73 37602ft 452kts
20-Mar-18 15:23 50.488860 -4.228454 73 37602ft 452kts
20-Mar-18 15:24 50.488860 -4.228454 73 37602ft 452kts
20-Mar-18 15:25 50.488860 -4.228454 73 37602ft 452kts
20-Mar-18 15:26 50.488860 -4.228454 73 37602ft 452kts
20-Mar-18 15:27 50.488860 -4.228454 73 37602ft 452kts
20-Mar-18 15:28 50.488860 -4.228454 73 37602ft 452kts
20-Mar-18 15:29 50.488860 -4.228454 73 37602ft 452kts
20-Mar-18 15:30 50.505801 -4.078267 73 37596ft 452kts
20-Mar-18 15:31 50.527277 -3.885551 73 37184ft 436kts
20-Mar-18 15:32 50.547891 -3.703977 73 36177ft 410kts
20-Mar-18 15:33 50.566822 -3.530080 72 34806ft 397kts
20-Mar-18 15:34 50.585330 -3.371113 71 33506ft 386kts
20-Mar-18 15:35 50.604465 -3.206205 71 32102ft 377kts
20-Mar-18 15:36 50.622692 -3.045655 71 30702ft 368kts
20-Mar-18 15:37 50.640967 -2.888923 72 29300ft 360kts
20-Mar-18 15:38 50.658095 -2.734273 72 27899ft 355kts
20-Mar-18 15:39 50.674691 -2.582078 72 26499ft 349kts
20-Mar-18 15:40 50.679886 -2.429251 86 25095ft 351kts
20-Mar-18 15:41 50.672410 -2.277414 86 23693ft 343kts
20-Mar-18 15:42 50.665590 -2.128653 86 22302ft 347kts
20-Mar-18 15:43 50.660514 -1.966507 81 21583ft 385kts
20-Mar-18 15:44 50.663740 -1.824333 82 21583ft 391kts
20-Mar-18 15:45 50.665481 -1.624066 81 21583ft 390kts
20-Mar-18 15:46 50.685554 -1.489027 62 21022ft 375kts
20-Mar-18 15:47 50.736804 -1.319519 58 19161ft 363kts
20-Mar-18 15:48 50.786993 -1.218885 36 17823ft 346kts
20-Mar-18 15:49 50.863681 -1.131295 29 16225ft 336kts
20-Mar-18 15:50 50.939799 -1.052635 30 14621ft 313kts
20-Mar-18 15:51 51.008288 -0.975023 39 13125ft 292kts
20-Mar-18 15:52 51.064930 -0.879496 45 12024ft 297kts
20-Mar-18 15:53 51.118834 -0.782530 45 10760ft 279kts
20-Mar-18 15:54 51.167544 -0.695124 45 9754ft 250kts
20-Mar-18 15:55 51.211757 -0.616112 46 8746ft 228kts
20-Mar-18 15:56 51.252272 -0.542871 46 7773ft 215kts
20-Mar-18 15:57 51.290790 -0.473134 46 6982ft 197kts
20-Mar-18 15:58 51.335681 -0.482284 296 6739ft 234kts
20-Mar-18 15:59 51.326795 -0.585709 268 5784ft 229kts
20-Mar-18 16:00 51.323487 -0.684463 282 4841ft 211kts
20-Mar-18 16:01 51.336472 -0.769658 289 4111ft 183kts
20-Mar-18 16:02 51.365903 -0.814023 3 3358ft 159kts
20-Mar-18 16:03 51.410170 -0.799149 13 2983ft 166kts
20-Mar-18 16:04 51.452604 -0.776836 28 3002ft 164kts
20-Mar-18 16:05 51.476712 -0.717942 80 2892ft 175kts
20-Mar-18 16:06 51.476986 -0.643612 86 1984ft 148kts
20-Mar-18 16:07 51.477168 -0.577526 91 1224ft 149kts
20-Mar-18 16:08 51.477378 -0.512231 88 341ft 144kts
20-Mar-18 16:09 51.477639 -0.457846 89 97ft 61kts
20-Mar-18 16:10 51.476047 -0.452056 241 96ft 7kts
20-Mar-18 16:11 51.475961 -0.455025 270 96ft 5kts
20-Mar-18 16:12 51.475940 -0.457285 268 96ft 4kts
20-Mar-18 16:13 51.475607 -0.460712 213 96ft 11kts
20-Mar-18 16:14 51.473645 -0.461394 227 96ft 5kts
20-Mar-18 16:15 51.473464 -0.461778 234 96ft 0kts
20-Mar-18 16:16 51.473464 -0.461778 234 96ft 0kts
20-Mar-18 16:17 51.473464 -0.461778 234 96ft 0kts
20-Mar-18 16:18 51.473464 -0.461778 234 96ft 0kts
20-Mar-18 16:19 51.473464 -0.461778 234 96ft 0kts
20-Mar-18 16:20 51.473464 -0.461778 234 96ft 0kts
20-Mar-18 16:21 51.473464 -0.461778 234 96ft 0kts
20-Mar-18 16:22 51.473464 -0.461778 234 96ft 0kts
20-Mar-18 16:23 51.473464 -0.461778 234 96ft 0kts
20-Mar-18 16:24 51.473464 -0.461778 234 96ft 0kts

Navigation Log

Ident Type
Flight plan parsing failed, navigation log unavailable